Time;durP1;ratioP1;P1;durP2;ratioP2;P2;SDS_P1;SDS_P2;PMS_P1;PMS_P2;Temp;Humidity;BMP_temperature;BMP_pressure;BME280_temperature;BME280_humidity;BME280_pressure;Samples;Min_cycle;Max_cycle;Signal;HPM_P1;HPM_P2
2023/03/25 00:03:13;;;;;;;13.27;9.13;;;9.30;85.80;;;;;;4978828;28;20719;-87
2023/03/25 00:09:38;;;;;;;1.92;1.30;;;9.20;87.00;;;;;;4978205;28;20207;-87
2023/03/25 00:15:44;;;;;;;2.50;1.98;;;9.20;84.80;;;;;;4978361;28;20164;-87
2023/03/25 03:33:16;;;;;;;2.92;1.00;;;9.00;68.60;;;;;;4992573;28;20219;-87
2023/03/25 03:35:49;;;;;;;3.00;1.10;;;8.90;68.30;;;;;;4998417;28;20583;-87
2023/03/25 03:38:18;;;;;;;1.30;0.80;;;8.80;70.70;;;;;;4998142;28;20191;-87
2023/03/25 03:40:53;;;;;;;3.60;1.20;;;8.70;70.90;;;;;;4987883;28;20188;-87
2023/03/25 03:43:33;;;;;;;2.35;1.00;;;8.70;73.60;;;;;;4985783;28;20637;-88
2023/03/25 03:46:02;;;;;;;3.63;0.77;;;8.70;72.60;;;;;;4976031;28;20177;-87
2023/03/25 03:48:42;;;;;;;2.50;1.15;;;8.80;71.60;;;;;;4975830;28;20229;-87
2023/03/25 03:51:12;;;;;;;3.30;1.20;;;8.80;72.10;;;;;;4975942;28;20196;-88
2023/03/25 03:53:41;;;;;;;3.05;1.27;;;8.80;73.70;;;;;;4978039;28;20208;-87
2023/03/25 03:56:12;;;;;;;4.40;1.10;;;8.70;73.60;;;;;;4980088;28;20227;-90
2023/03/25 03:58:42;;;;;;;4.05;1.77;;;8.60;73.50;;;;;;4985382;28;20205;-92
2023/03/25 04:01:13;;;;;;;4.40;1.20;;;8.60;73.50;;;;;;4986449;28;20328;-87
2023/03/25 04:03:47;;;;;;;3.30;1.30;;;8.50;73.40;;;;;;4988842;28;20204;-89
2023/03/25 04:06:20;;;;;;;2.75;0.95;;;8.50;73.40;;;;;;4976656;28;20196;-89
2023/03/25 04:08:57;;;;;;;3.28;1.00;;;8.60;73.50;;;;;;4981851;28;20299;-87
2023/03/25 04:11:30;;;;;;;4.50;1.30;;;8.50;73.40;;;;;;4974983;28;20208;-88
2023/03/25 04:14:00;;;;;;;4.07;1.30;;;8.50;73.40;;;;;;4983919;28;20211;-88
2023/03/25 04:16:27;;;;;;;2.83;1.10;;;8.50;73.40;;;;;;4979806;28;20691;-87
2023/03/25 04:18:57;;;;;;;2.78;1.08;;;8.30;73.20;;;;;;4973380;28;20212;-88
2023/03/25 04:21:24;;;;;;;3.97;1.17;;;8.30;73.20;;;;;;4975995;28;20224;-88
2023/03/25 04:23:51;;;;;;;3.08;1.10;;;8.30;73.20;;;;;;4980108;28;20716;-85
2023/03/25 04:26:18;;;;;;;4.50;1.27;;;8.30;73.20;;;;;;4995038;28;20206;-86
2023/03/25 04:28:45;;;;;;;4.32;0.88;;;8.30;73.20;;;;;;4995218;28;20314;-87
2023/03/25 04:31:15;;;;;;;3.42;1.00;;;8.40;73.30;;;;;;4995121;28;20208;-86
2023/03/25 04:33:45;;;;;;;2.88;1.17;;;8.30;73.20;;;;;;4996701;28;20293;-85
2023/03/25 04:36:14;;;;;;;4.22;1.08;;;8.40;72.70;;;;;;4995697;28;20200;-86
2023/03/25 04:38:44;;;;;;;3.17;1.30;;;8.30;73.20;;;;;;4974234;28;20711;-86
2023/03/25 04:41:12;;;;;;;4.22;1.27;;;8.30;73.20;;;;;;4994454;28;20211;-86
2023/03/25 04:43:40;;;;;;;4.70;1.38;;;8.20;73.00;;;;;;4997356;28;20295;-86
2023/03/25 04:46:11;;;;;;;4.30;1.20;;;8.20;73.00;;;;;;5007573;28;20227;-85
2023/03/25 04:48:40;;;;;;;4.00;1.33;;;8.20;73.00;;;;;;5010686;28;20219;-85
2023/03/25 04:51:09;;;;;;;3.28;1.20;;;8.30;72.30;;;;;;4997057;28;20195;-88
2023/03/25 04:53:37;;;;;;;7.97;1.23;;;8.40;71.10;;;;;;4986591;28;20295;-85
2023/03/25 04:56:05;;;;;;;5.93;1.27;;;8.50;66.60;;;;;;5001068;28;20208;-87
2023/03/25 04:58:35;;;;;;;5.95;1.50;;;8.60;66.40;;;;;;5002487;28;20200;-85
2023/03/25 05:01:04;;;;;;;4.18;1.25;;;8.60;65.50;;;;;;4984477;28;20562;-85
2023/03/25 05:03:32;;;;;;;2.70;1.00;;;8.70;64.60;;;;;;4978177;28;20260;-85
2023/03/25 05:05:59;;;;;;;4.30;1.35;;;8.60;65.70;;;;;;4997372;28;20207;-86
2023/03/25 05:08:26;;;;;;;3.50;1.23;;;8.60;67.30;;;;;;4986495;28;20220;-86
2023/03/25 05:10:55;;;;;;;4.95;1.38;;;8.60;66.90;;;;;;5009570;28;20200;-85
2023/03/25 05:13:22;;;;;;;4.75;1.25;;;8.60;68.30;;;;;;4996109;28;20215;-86
2023/03/25 05:15:49;;;;;;;6.50;1.40;;;8.50;67.60;;;;;;4979569;28;20192;-85
2023/03/25 05:27:35;;;;;;;5.60;1.40;;;8.80;66.70;;;;;;5629311;23;20582;-84
2023/03/25 05:30:04;;;;;;;3.97;1.05;;;8.70;66.70;;;;;;5030934;28;20249;-84
2023/03/25 05:32:32;;;;;;;3.63;1.10;;;8.70;65.30;;;;;;5033345;28;20546;-84
2023/03/25 05:48:46;;;;;;;2.67;1.00;;;8.80;66.00;;;;;;5034928;28;20214;-84
2023/03/25 05:51:15;;;;;;;2.58;0.85;;;9.00;66.40;;;;;;5034984;28;20539;-84
2023/03/25 05:53:43;;;;;;;4.43;1.27;;;9.10;63.20;;;;;;5023655;28;20222;-85
2023/03/25 05:56:10;;;;;;;2.47;1.10;;;9.10;64.00;;;;;;5023086;28;20222;-85
2023/03/25 05:58:37;;;;;;;1.85;0.95;;;9.10;64.30;;;;;;5032949;28;20790;-84
2023/03/25 06:01:04;;;;;;;1.92;0.75;;;9.20;62.00;;;;;;5029368;28;20198;-86
2023/03/25 06:03:33;;;;;;;2.33;0.77;;;9.20;62.10;;;;;;5017124;28;20482;-85
2023/03/25 06:06:04;;;;;;;2.03;0.80;;;9.10;64.00;;;;;;5017233;28;20214;-85
2023/03/25 06:08:32;;;;;;;1.40;1.00;;;9.10;62.60;;;;;;5018908;28;20249;-84
2023/03/25 06:10:59;;;;;;;1.10;0.63;;;9.10;61.30;;;;;;5030584;28;20608;-84
2023/03/25 06:13:26;;;;;;;2.17;0.90;;;9.00;60.90;;;;;;5024349;28;20606;-85
2023/03/25 06:15:55;;;;;;;0.82;0.50;;;9.00;60.10;;;;;;5015108;28;20195;-89
2023/03/25 06:18:24;;;;;;;0.90;0.80;;;9.00;56.80;;;;;;5014838;28;20242;-88
2023/03/25 06:26:26;;;;;;;1.42;0.77;;;9.10;53.70;;;;;;6119064;23;20166;-89
2023/03/25 06:28:54;;;;;;;0.80;0.60;;;9.20;51.60;;;;;;4994152;28;20239;-88
2023/03/25 06:31:25;;;;;;;0.50;0.50;;;9.20;51.40;;;;;;4977675;28;20231;-86
2023/03/25 06:33:52;;;;;;;0.55;0.55;;;9.10;50.50;;;;;;4994843;28;20648;-86
2023/03/25 06:43:13;;;;;;;0.50;0.50;;;9.00;47.50;;;;;;4988039;28;20252;-86
2023/03/25 06:45:40;;;;;;;1.02;0.60;;;9.00;47.50;;;;;;4993900;28;20203;-86
2023/03/25 06:48:08;;;;;;;0.63;0.60;;;8.90;47.40;;;;;;4995279;28;20188;-86
2023/03/25 06:50:35;;;;;;;1.38;0.52;;;8.80;47.40;;;;;;4996691;28;20227;-86
2023/03/25 06:53:02;;;;;;;0.82;0.70;;;8.80;48.50;;;;;;4997741;28;20648;-87
2023/03/25 06:55:29;;;;;;;3.40;0.60;;;8.70;47.30;;;;;;4983898;28;20200;-86
2023/03/25 06:57:56;;;;;;;1.20;0.52;;;8.60;50.00;;;;;;4985551;28;20279;-86
2023/03/25 07:00:27;;;;;;;0.50;0.50;;;8.70;51.90;;;;;;4993127;28;20200;-87
2023/03/25 07:02:54;;;;;;;0.75;0.60;;;8.60;52.10;;;;;;4986426;28;20199;-86
2023/03/25 07:05:21;;;;;;;2.58;0.68;;;8.50;54.70;;;;;;4995580;28;20196;-86
2023/03/25 07:07:48;;;;;;;3.05;0.68;;;8.60;57.20;;;;;;4999817;28;20207;-86
2023/03/25 07:10:41;;;;;;;1.48;0.90;;;8.70;55.10;;;;;;5000297;28;20215;-86
2023/03/25 07:16:32;;;;;;;1.23;0.63;;;8.80;55.50;;;;;;5000459;28;20256;-86
2023/03/25 07:22:20;;;;;;;3.65;0.70;;;8.90;56.70;;;;;;4994185;28;20211;-86
2023/03/25 07:24:47;;;;;;;1.13;0.60;;;8.90;56.60;;;;;;4994337;28;20195;-85
2023/03/25 07:27:49;;;;;;;1.23;0.55;;;8.90;56.30;;;;;;4994303;28;20216;-86
2023/03/25 07:30:21;;;;;;;1.38;0.60;;;9.00;55.40;;;;;;4990599;28;20266;-86
2023/03/25 07:32:50;;;;;;;2.78;0.80;;;8.90;54.90;;;;;;4983779;28;20553;-86
2023/03/25 07:35:17;;;;;;;1.10;0.63;;;8.80;56.60;;;;;;4966731;28;20660;-86
2023/03/25 07:37:44;;;;;;;0.50;0.50;;;8.70;58.00;;;;;;4996780;28;20659;-85
2023/03/25 07:40:18;;;;;;;1.70;0.70;;;8.70;58.00;;;;;;5014075;28;20195;-87
2023/03/25 07:46:17;;;;;;;1.88;0.77;;;8.70;56.50;;;;;;4993162;28;20187;-86
2023/03/25 07:52:05;;;;;;;1.02;0.85;;;8.70;56.90;;;;;;4981651;28;20196;-87
2023/03/25 07:54:32;;;;;;;0.55;0.50;;;8.80;56.20;;;;;;4997985;28;20200;-86
2023/03/25 07:56:59;;;;;;;1.30;0.68;;;8.90;56.90;;;;;;4982077;28;20650;-87
2023/03/25 07:59:26;;;;;;;1.67;0.82;;;8.90;55.70;;;;;;4993676;28;20207;-88
2023/03/25 08:01:53;;;;;;;0.80;0.55;;;9.00;55.90;;;;;;4975878;28;20196;-88
2023/03/25 08:04:20;;;;;;;0.93;0.50;;;9.00;54.90;;;;;;4993975;28;20207;-90
2023/03/25 08:06:47;;;;;;;4.95;0.98;;;9.10;56.80;;;;;;4992897;28;20291;-86
2023/03/25 08:09:15;;;;;;;1.38;0.70;;;9.30;55.70;;;;;;4992066;28;20224;-88
2023/03/25 08:11:42;;;;;;;1.63;0.75;;;9.40;54.90;;;;;;4997379;28;20207;-86
2023/03/25 08:14:08;;;;;;;1.02;0.60;;;9.50;53.10;;;;;;5008257;28;20656;-88
2023/03/25 08:16:35;;;;;;;1.35;0.75;;;9.90;52.70;;;;;;4990796;28;20200;-86
2023/03/25 08:19:02;;;;;;;2.80;0.85;;;10.10;49.20;;;;;;4980747;28;20211;-86
2023/03/25 08:21:29;;;;;;;0.68;0.68;;;10.30;48.90;;;;;;4997251;28;20207;-87
2023/03/25 08:24:01;;;;;;;1.38;0.70;;;10.30;47.10;;;;;;4996323;28;20659;-86
2023/03/25 08:26:29;;;;;;;1.45;0.65;;;10.10;48.00;;;;;;4993810;28;20230;-87
2023/03/25 08:28:58;;;;;;;1.30;0.70;;;10.00;48.00;;;;;;4996168;28;20200;-87
2023/03/25 08:31:29;;;;;;;1.23;0.77;;;9.90;48.30;;;;;;4986373;28;20213;-89
2023/03/25 08:33:56;;;;;;;1.10;0.60;;;10.00;47.80;;;;;;4991343;28;20200;-86
2023/03/25 08:36:23;;;;;;;1.40;0.55;;;9.90;50.40;;;;;;4998730;28;20199;-87
2023/03/25 08:38:50;;;;;;;0.85;0.47;;;10.10;47.60;;;;;;5004267;28;20195;-87
2023/03/25 08:41:18;;;;;;;0.73;0.60;;;9.90;50.70;;;;;;4998677;28;20207;-86
2023/03/25 08:43:46;;;;;;;1.55;0.68;;;9.90;50.70;;;;;;5000127;28;20208;-86
2023/03/25 08:46:14;;;;;;;1.02;0.70;;;9.80;55.50;;;;;;4998186;28;20206;-87
2023/03/25 08:48:42;;;;;;;1.70;0.60;;;9.70;53.40;;;;;;4998107;28;20228;-86
2023/03/25 08:51:09;;;;;;;1.35;0.80;;;9.90;53.20;;;;;;5004352;28;20255;-87
2023/03/25 08:53:36;;;;;;;1.23;0.73;;;10.10;52.40;;;;;;4986101;28;20207;-87
2023/03/25 08:56:03;;;;;;;0.75;0.75;;;10.20;51.60;;;;;;4986395;28;20200;-87
2023/03/25 08:58:30;;;;;;;0.93;0.70;;;10.40;52.40;;;;;;4990309;28;20665;-87
2023/03/25 09:00:58;;;;;;;3.05;0.65;;;10.40;47.90;;;;;;4992805;28;20204;-83
2023/03/25 09:03:26;;;;;;;1.70;1.23;;;10.60;47.40;;;;;;4991212;28;20785;-90
2023/03/25 09:05:53;;;;;;;2.38;0.85;;;10.50;47.30;;;;;;4991523;28;20608;-85
2023/03/25 09:08:26;;;;;;;2.10;0.63;;;10.30;48.80;;;;;;5003456;28;20207;-85
2023/03/25 09:10:55;;;;;;;0.60;0.60;;;10.20;48.90;;;;;;4989924;28;20206;-85
2023/03/25 09:13:22;;;;;;;0.60;0.60;;;10.20;51.00;;;;;;5000751;28;20688;-86
2023/03/25 09:15:48;;;;;;;2.85;0.73;;;10.20;50.40;;;;;;4973652;28;20196;-85
2023/03/25 09:18:17;;;;;;;1.95;0.57;;;10.20;47.00;;;;;;4989482;28;20247;-85
2023/03/25 09:20:46;;;;;;;2.75;0.80;;;10.10;47.40;;;;;;4987923;28;20204;-88
2023/03/25 09:23:13;;;;;;;3.78;1.10;;;10.20;47.00;;;;;;4993088;28;20219;-86
2023/03/25 09:25:40;;;;;;;1.58;0.60;;;10.30;47.20;;;;;;4989188;28;20878;-86
2023/03/25 09:28:07;;;;;;;5.07;0.68;;;10.50;47.30;;;;;;4993055;28;20204;-84
2023/03/25 09:30:34;;;;;;;2.38;0.73;;;10.90;47.60;;;;;;4994941;28;20591;-86
2023/03/25 09:33:01;;;;;;;1.48;0.77;;;11.70;41.80;;;;;;4994900;28;20204;-83
2023/03/25 09:35:29;;;;;;;0.85;0.70;;;12.30;37.80;;;;;;4990808;28;20239;-85
2023/03/25 09:37:56;;;;;;;3.58;0.80;;;12.20;33.80;;;;;;4993841;28;20231;-84
2023/03/25 09:40:23;;;;;;;1.52;0.80;;;12.30;35.70;;;;;;4996060;28;20679;-83
2023/03/25 09:43:00;;;;;;;2.30;0.77;;;12.00;33.30;;;;;;4990681;28;20195;-83
2023/03/25 09:45:34;;;;;;;1.63;1.17;;;12.10;35.10;;;;;;4989737;28;20208;-84
2023/03/25 09:48:05;;;;;;;2.38;0.90;;;12.10;33.50;;;;;;4989464;28;20683;-83
2023/03/25 09:50:36;;;;;;;3.65;1.00;;;12.10;33.50;;;;;;4995107;28;20238;-86
2023/03/25 09:53:11;;;;;;;1.33;0.90;;;12.10;33.50;;;;;;4985837;28;20208;-85
2023/03/25 09:55:42;;;;;;;4.80;0.95;;;12.70;33.50;;;;;;4994422;28;20188;-85
2023/03/25 09:58:26;;;;;;;2.92;1.02;;;12.90;29.80;;;;;;4996981;28;20207;-84
2023/03/25 10:00:59;;;;;;;2.15;0.90;;;13.00;30.50;;;;;;4994996;28;20203;-85
2023/03/25 10:03:33;;;;;;;1.67;0.80;;;12.70;29.30;;;;;;4991712;28;20192;-85
2023/03/25 10:06:25;;;;;;;2.10;1.02;;;12.40;29.10;;;;;;4984270;28;20646;-84
2023/03/25 10:09:25;;;;;;;3.17;1.35;;;12.30;29.90;;;;;;4991998;28;20192;-84
2023/03/25 10:12:00;;;;;;;9.02;5.38;;;12.20;30.70;;;;;;4991242;28;20196;-84
2023/03/25 10:14:32;;;;;;;1.60;1.08;;;12.20;30.80;;;;;;4992404;28;20207;-84
2023/03/25 10:17:13;;;;;;;3.20;1.98;;;12.10;29.90;;;;;;4992909;28;20711;-84
2023/03/25 10:19:53;;;;;;;2.08;1.00;;;12.00;30.50;;;;;;4994604;28;20203;-84
2023/03/25 10:22:28;;;;;;;2.63;1.58;;;12.10;31.50;;;;;;4995231;28;20310;-84
2023/03/25 10:24:59;;;;;;;7.03;3.47;;;12.30;30.50;;;;;;5000762;28;20199;-84
2023/03/25 10:27:34;;;;;;;6.55;2.50;;;12.30;29.60;;;;;;4988074;28;20268;-84
2023/03/25 10:30:10;;;;;;;11.57;6.63;;;12.30;29.40;;;;;;4991748;28;20234;-85
2023/03/25 10:32:40;;;;;;;11.00;6.25;;;12.30;29.90;;;;;;5007502;28;20216;-85
2023/03/25 10:35:15;;;;;;;6.10;2.75;;;12.40;29.30;;;;;;5007360;28;20198;-84
2023/03/25 10:37:46;;;;;;;3.55;1.00;;;12.30;28.30;;;;;;4992964;28;20195;-84
2023/03/25 10:40:19;;;;;;;3.40;2.17;;;12.00;30.00;;;;;;4975403;28;20632;-84
2023/03/25 10:42:56;;;;;;;14.32;9.13;;;12.10;30.20;;;;;;4992555;28;20279;-84
2023/03/25 10:45:24;;;;;;;4.05;1.42;;;11.90;30.70;;;;;;4992178;28;20199;-84
2023/03/25 10:47:54;;;;;;;3.17;1.33;;;12.00;31.80;;;;;;4997484;28;20203;-83
2023/03/25 10:50:22;;;;;;;7.65;4.47;;;11.70;32.80;;;;;;4993854;28;20704;-84
2023/03/25 10:52:54;;;;;;;4.40;2.67;;;11.60;34.30;;;;;;4994330;28;20199;-84
2023/03/25 10:55:24;;;;;;;2.25;1.17;;;11.50;38.70;;;;;;4989287;28;20715;-83
2023/03/25 10:57:52;;;;;;;1.52;1.08;;;11.40;38.90;;;;;;4989945;28;20482;-83
2023/03/25 11:00:22;;;;;;;3.08;0.98;;;11.60;37.20;;;;;;4990007;28;20197;-83
2023/03/25 11:02:50;;;;;;;2.67;1.90;;;11.80;36.60;;;;;;4993723;28;20294;-86
2023/03/25 11:05:19;;;;;;;7.80;5.05;;;11.70;35.60;;;;;;4987077;28;20210;-84
2023/03/25 11:07:52;;;;;;;1.67;0.80;;;11.80;34.10;;;;;;4993443;28;20207;-84
2023/03/25 11:10:23;;;;;;;2.53;2.03;;;11.80;32.90;;;;;;4989657;28;20224;-84
2023/03/25 11:12:53;;;;;;;1.23;1.00;;;12.20;32.80;;;;;;4990070;28;20286;-89
2023/03/25 11:15:22;;;;;;;2.13;0.90;;;12.30;31.10;;;;;;4983821;28;20239;-83
2023/03/25 11:17:58;;;;;;;0.63;0.63;;;12.50;29.40;;;;;;4993645;28;20548;-82
2023/03/25 11:20:30;;;;;;;3.15;1.92;;;12.80;30.00;;;;;;4997087;28;20199;-85
2023/03/25 11:23:05;;;;;;;2.20;1.30;;;12.90;29.30;;;;;;4991237;28;20223;-81
2023/03/25 11:25:39;;;;;;;1.35;0.98;;;12.60;29.30;;;;;;4991824;28;20246;-82
2023/03/25 11:28:13;;;;;;;3.70;1.50;;;12.40;31.60;;;;;;4983895;28;20200;-82
2023/03/25 11:31:06;;;;;;;1.60;1.20;;;12.10;32.10;;;;;;4985734;28;20227;-80
2023/03/25 11:33:35;;;;;;;2.00;1.33;;;11.90;31.70;;;;;;4993787;28;20550;-81
2023/03/25 11:36:12;;;;;;;1.77;1.02;;;11.80;32.90;;;;;;4990501;28;20946;-81
2023/03/25 11:38:40;;;;;;;5.30;2.50;;;11.60;32.00;;;;;;4993757;28;20230;-80
2023/03/25 11:41:07;;;;;;;1.63;1.30;;;11.80;32.30;;;;;;4990363;28;20210;-81
2023/03/25 11:43:36;;;;;;;1.30;1.02;;;12.10;32.90;;;;;;4982999;28;20659;-82
2023/03/25 11:46:09;;;;;;;1.00;0.73;;;12.20;30.40;;;;;;4989158;28;20211;-88
2023/03/25 11:48:39;;;;;;;2.20;1.38;;;12.30;32.50;;;;;;4972390;28;20197;-88
2023/03/25 11:51:11;;;;;;;0.88;0.60;;;12.20;30.80;;;;;;4994760;28;20212;-87
2023/03/25 11:53:43;;;;;;;0.85;0.75;;;12.10;30.80;;;;;;4997667;28;20196;-82
2023/03/25 11:56:15;;;;;;;5.40;3.08;;;12.10;30.60;;;;;;4994690;28;20200;-83
2023/03/25 11:58:43;;;;;;;6.90;4.90;;;12.20;30.50;;;;;;4997997;28;20250;-88
2023/03/25 12:01:26;;;;;;;1.05;0.70;;;12.30;31.60;;;;;;4978907;28;20554;-86
2023/03/25 12:07:20;;;;;;;1.27;1.08;;;12.30;30.30;;;;;;4972489;28;20211;-86
2023/03/25 12:23:09;;;;;;;2.25;1.38;;;12.50;29.00;;;;;;5023273;23;20762;-85
2023/03/25 12:25:52;;;;;;;0.63;0.63;;;12.20;30.00;;;;;;4973931;28;20204;-86
2023/03/25 12:28:45;;;;;;;1.23;0.85;;;11.80;30.50;;;;;;4989415;28;20197;-83
2023/03/25 12:37:28;;;;;;;0.68;0.65;;;12.00;30.40;;;;;;4956068;28;20239;-82
2023/03/25 12:40:31;;;;;;;4.63;1.33;;;12.00;31.20;;;;;;4986141;28;20283;-85
2023/03/25 12:43:04;;;;;;;1.38;0.63;;;12.20;32.60;;;;;;4907732;29;20281;-87
2023/03/25 12:45:50;;;;;;;1.00;0.93;;;12.20;30.90;;;;;;4971081;28;20790;-90
2023/03/25 12:48:34;;;;;;;2.67;1.90;;;12.40;31.20;;;;;;4992521;28;20193;-86
2023/03/25 12:51:07;;;;;;;2.78;2.13;;;12.40;31.70;;;;;;4987198;28;20247;-84
2023/03/25 13:03:56;;;;;;;1.00;0.52;;;12.20;31.10;;;;;;4926577;29;20594;-86
2023/03/25 13:06:48;;;;;;;0.63;0.63;;;12.20;30.80;;;;;;4983490;28;20199;-86
2023/03/25 13:09:21;;;;;;;1.02;1.00;;;12.30;32.30;;;;;;4982741;28;20207;-88
2023/03/25 13:11:52;;;;;;;0.65;0.63;;;12.60;30.70;;;;;;4955267;28;20669;-87
2023/03/25 13:14:42;;;;;;;0.47;0.45;;;12.60;30.00;;;;;;4973733;28;20195;-86
2023/03/25 13:20:38;;;;;;;2.67;0.70;;;12.20;29.50;;;;;;4988186;28;20195;-87
2023/03/25 13:23:11;;;;;;;0.55;0.55;;;11.90;32.10;;;;;;4998022;28;20232;-90
2023/03/25 13:25:48;;;;;;;1.90;1.35;;;11.80;31.10;;;;;;4976691;28;20199;-88
2023/03/25 13:28:21;;;;;;;0.98;0.90;;;11.80;33.00;;;;;;4969146;28;20657;-90
2023/03/25 13:30:50;;;;;;;2.53;0.77;;;11.90;34.20;;;;;;4982936;28;20219;-89
2023/03/25 13:33:23;;;;;;;0.93;0.47;;;11.80;34.80;;;;;;4983324;28;20225;-87
2023/03/25 13:35:54;;;;;;;0.60;0.60;;;11.80;34.90;;;;;;4988009;28;20259;-85
2023/03/25 13:38:27;;;;;;;1.00;0.80;;;11.80;36.10;;;;;;4981280;28;20204;-86
2023/03/25 13:41:17;;;;;;;2.22;0.60;;;11.80;35.30;;;;;;4994914;28;20649;-87
2023/03/25 13:43:55;;;;;;;0.50;0.50;;;11.80;35.60;;;;;;4963661;28;20205;-87
2023/03/25 13:46:27;;;;;;;0.60;0.57;;;11.80;36.60;;;;;;4993329;28;20230;-89
2023/03/25 13:48:58;;;;;;;0.50;0.50;;;11.80;36.60;;;;;;4985264;28;20546;-86
2023/03/25 13:54:53;;;;;;;0.65;0.55;;;11.70;37.30;;;;;;4938280;28;20291;-87
2023/03/25 14:08:35;;;;;;;1.73;0.63;;;11.60;35.10;;;;;;4975887;28;20235;-88
2023/03/25 14:14:49;;;;;;;2.25;1.02;;;11.50;35.10;;;;;;4954956;29;20621;-87
2023/03/25 14:34:25;;;;;;;2.08;1.10;;;11.30;35.40;;;;;;5106414;23;20240;-88
2023/03/25 14:37:24;;;;;;;1.83;1.15;;;11.40;35.60;;;;;;4982773;28;20720;-87
2023/03/25 14:39:52;;;;;;;0.98;0.52;;;11.50;34.10;;;;;;4962407;28;20556;-88
2023/03/25 14:42:30;;;;;;;3.83;1.95;;;11.50;34.30;;;;;;4982677;28;20665;-88
2023/03/25 14:45:30;;;;;;;1.75;0.70;;;11.60;34.70;;;;;;4988028;28;20188;-88
2023/03/25 14:48:36;;;;;;;0.73;0.60;;;11.70;32.50;;;;;;4981638;28;20529;-88
2023/03/25 14:54:20;;;;;;;1.05;0.77;;;11.90;33.00;;;;;;4975558;28;20641;-88
2023/03/25 15:00:12;;;;;;;2.65;0.90;;;12.10;32.90;;;;;;4897904;29;20283;-88
2023/03/25 15:02:41;;;;;;;1.77;0.98;;;12.00;30.50;;;;;;4975179;28;20193;-88
2023/03/25 15:05:54;;;;;;;1.77;1.08;;;11.90;31.20;;;;;;4976286;28;20196;-89
2023/03/25 15:11:52;;;;;;;2.00;0.90;;;11.80;31.70;;;;;;4992400;28;20258;-89
2023/03/25 15:14:22;;;;;;;1.83;0.75;;;11.80;31.40;;;;;;4978643;28;20687;-88
2023/03/25 15:17:01;;;;;;;1.35;0.60;;;11.80;31.80;;;;;;4983752;28;20193;-88
2023/03/25 15:19:29;;;;;;;0.90;0.73;;;11.80;31.50;;;;;;4920639;28;20203;-89
2023/03/25 15:28:16;;;;;;;1.38;1.13;;;12.00;30.60;;;;;;4935918;28;20298;-90
2023/03/25 15:31:03;;;;;;;2.65;0.90;;;12.10;30.90;;;;;;4971771;28;20555;-91
2023/03/25 15:39:59;;;;;;;1.48;0.75;;;11.70;31.80;;;;;;4920347;29;20186;-90
2023/03/25 15:50:05;;;;;;;0.95;0.82;;;11.60;33.60;;;;;;4900513;29;20212;-89
2023/03/25 15:56:18;;;;;;;1.70;1.02;;;11.60;34.20;;;;;;4905193;29;20239;-89
2023/03/25 16:02:30;;;;;;;1.15;0.77;;;11.20;35.10;;;;;;4932426;28;20691;-89
2023/03/25 16:04:57;;;;;;;2.72;0.73;;;11.10;36.00;;;;;;4993794;28;20185;-89
2023/03/25 16:07:33;;;;;;;0.88;0.88;;;11.20;35.90;;;;;;4978617;28;20201;-89
2023/03/25 16:13:05;;;;;;;2.72;1.10;;;11.50;33.90;;;;;;4915073;29;20225;-91
2023/03/25 16:16:13;;;;;;;1.45;0.88;;;11.70;33.70;;;;;;4893137;29;20299;-90
2023/03/25 16:18:43;;;;;;;1.63;1.00;;;11.90;33.50;;;;;;4946321;29;20216;-91
2023/03/25 16:27:12;;;;;;;0.80;0.80;;;11.80;32.30;;;;;;4984070;28;20248;-90
2023/03/25 16:32:53;;;;;;;1.95;0.90;;;11.30;34.50;;;;;;4977349;28;20282;-90
2023/03/25 16:35:23;;;;;;;1.15;0.80;;;11.20;36.10;;;;;;4994663;28;20211;-89
2023/03/25 16:37:51;;;;;;;4.25;0.70;;;11.10;35.40;;;;;;4997050;28;20204;-89
2023/03/25 16:40:26;;;;;;;0.63;0.63;;;11.00;37.10;;;;;;4985516;28;20660;-90
2023/03/25 16:42:54;;;;;;;1.40;0.75;;;11.00;36.10;;;;;;4977601;28;20196;-89
2023/03/25 16:45:24;;;;;;;0.82;0.82;;;11.00;37.20;;;;;;4983313;28;20198;-90
2023/03/25 16:47:55;;;;;;;1.00;0.90;;;10.90;36.50;;;;;;4983849;28;20562;-91
2023/03/25 16:50:23;;;;;;;0.95;0.82;;;10.90;36.60;;;;;;4955584;28;20212;-90
2023/03/25 16:52:51;;;;;;;1.30;0.80;;;11.00;37.20;;;;;;4966287;28;20228;-91
2023/03/25 16:55:29;;;;;;;1.25;0.90;;;11.00;37.70;;;;;;4983004;28;20539;-91
2023/03/25 16:57:56;;;;;;;1.08;0.98;;;10.90;36.70;;;;;;4968125;28;20196;-90
2023/03/25 17:00:25;;;;;;;1.75;0.60;;;10.90;36.30;;;;;;4977812;28;20196;-91
2023/03/25 17:02:52;;;;;;;1.60;0.88;;;10.80;36.80;;;;;;4986658;28;20273;-90
2023/03/25 17:05:21;;;;;;;1.38;0.88;;;10.90;37.80;;;;;;4986647;28;20552;-91
2023/03/25 17:07:49;;;;;;;1.73;0.80;;;10.90;37.80;;;;;;4992007;28;20212;-89
2023/03/25 17:10:21;;;;;;;1.17;0.90;;;10.90;36.60;;;;;;4977165;28;20192;-89
2023/03/25 17:12:54;;;;;;;1.67;1.10;;;10.90;37.00;;;;;;4977021;28;20234;-90
2023/03/25 17:15:22;;;;;;;1.30;1.00;;;10.90;37.30;;;;;;4981891;28;20251;-89
2023/03/25 17:17:55;;;;;;;0.93;0.80;;;10.90;38.50;;;;;;4966987;28;20235;-89
2023/03/25 17:20:29;;;;;;;1.05;0.82;;;10.90;38.70;;;;;;4996256;28;20676;-89
2023/03/25 17:23:00;;;;;;;2.85;1.00;;;10.80;38.00;;;;;;4957569;28;20271;-90
2023/03/25 17:25:51;;;;;;;0.98;0.90;;;10.70;39.20;;;;;;4974062;28;20236;-90
2023/03/25 17:28:27;;;;;;;0.50;0.50;;;10.50;39.00;;;;;;4960414;28;20212;-90
2023/03/25 17:30:54;;;;;;;0.85;0.70;;;10.30;39.50;;;;;;4965211;28;20279;-88
2023/03/25 17:33:33;;;;;;;1.00;0.77;;;10.20;40.00;;;;;;4967751;28;20221;-89
2023/03/25 17:36:02;;;;;;;1.25;0.85;;;10.10;40.50;;;;;;4967526;28;20200;-90
2023/03/25 17:38:32;;;;;;;1.45;0.82;;;10.00;41.40;;;;;;4956593;28;20237;-90
2023/03/25 17:41:02;;;;;;;1.10;1.00;;;9.90;44.60;;;;;;4950017;28;20248;-89
2023/03/25 17:43:32;;;;;;;1.15;0.90;;;9.80;45.80;;;;;;4957564;28;20256;-89
2023/03/25 17:46:00;;;;;;;2.38;0.80;;;9.70;48.10;;;;;;4976748;28;20205;-89
2023/03/25 17:48:28;;;;;;;0.73;0.70;;;9.60;48.00;;;;;;4959255;28;20215;-86
2023/03/25 17:51:21;;;;;;;1.25;0.70;;;9.60;48.00;;;;;;4972901;28;20193;-88
2023/03/25 17:53:48;;;;;;;0.88;0.88;;;9.60;48.00;;;;;;4971143;28;20201;-87
2023/03/25 17:56:20;;;;;;;1.33;1.00;;;9.50;47.90;;;;;;4954782;28;20201;-91
2023/03/25 17:58:47;;;;;;;1.63;1.00;;;9.40;49.80;;;;;;4986749;28;20342;-88
2023/03/25 18:01:14;;;;;;;2.13;0.85;;;9.40;49.80;;;;;;4973003;28;20208;-88
2023/03/25 18:03:42;;;;;;;1.20;0.90;;;9.40;50.70;;;;;;4971148;28;20734;-88
2023/03/25 18:06:12;;;;;;;1.65;0.70;;;9.30;51.10;;;;;;4957081;29;20202;-87
2023/03/25 18:08:39;;;;;;;1.42;1.08;;;9.30;52.00;;;;;;4974720;28;20211;-87
2023/03/25 18:11:08;;;;;;;1.00;0.77;;;9.30;51.50;;;;;;4969569;28;20291;-89
2023/03/25 18:13:35;;;;;;;1.50;1.00;;;9.20;51.90;;;;;;4970947;28;20236;-88
2023/03/25 18:16:02;;;;;;;1.30;0.70;;;9.20;52.20;;;;;;4965338;28;20292;-89
2023/03/25 18:18:29;;;;;;;2.42;0.93;;;9.20;52.70;;;;;;4931264;28;20255;-89
2023/03/25 18:20:58;;;;;;;1.50;0.90;;;9.20;53.80;;;;;;4965564;28;20205;-89
2023/03/25 18:23:27;;;;;;;1.67;0.70;;;9.20;53.20;;;;;;4948425;28;20593;-89
2023/03/25 18:25:54;;;;;;;2.70;1.08;;;9.10;53.60;;;;;;4966132;28;20292;-89
2023/03/25 18:28:21;;;;;;;1.67;0.88;;;9.10;54.70;;;;;;4936802;28;20200;-88
2023/03/25 18:30:52;;;;;;;0.95;0.75;;;9.00;55.30;;;;;;4956476;28;20204;-86
2023/03/25 18:33:19;;;;;;;1.02;1.00;;;9.00;55.90;;;;;;4967831;28;20220;-92
2023/03/25 18:35:46;;;;;;;2.63;1.10;;;9.00;56.40;;;;;;4968539;28;20212;-87
2023/03/25 18:38:18;;;;;;;2.13;1.33;;;9.00;56.90;;;;;;4968978;28;20599;-83
2023/03/25 18:40:46;;;;;;;2.15;1.40;;;9.00;57.20;;;;;;4969383;28;20203;-92
2023/03/25 18:43:13;;;;;;;2.55;1.00;;;9.00;58.40;;;;;;4970226;28;20209;-92
2023/03/25 18:45:40;;;;;;;1.35;0.80;;;8.90;58.40;;;;;;4970138;28;20669;-87
2023/03/25 18:48:07;;;;;;;1.63;0.90;;;9.00;59.80;;;;;;4956081;28;20205;-87
2023/03/25 18:50:36;;;;;;;1.50;1.23;;;8.90;60.00;;;;;;4964513;28;20201;-85
2023/03/25 18:53:04;;;;;;;2.47;1.10;;;9.00;61.30;;;;;;4965420;28;20257;-86
2023/03/25 18:55:35;;;;;;;0.70;0.68;;;8.90;62.40;;;;;;4969423;28;20665;-87
2023/03/25 18:58:03;;;;;;;1.17;1.08;;;8.90;64.70;;;;;;4948079;28;20209;-86
2023/03/25 19:00:35;;;;;;;2.53;1.00;;;8.80;64.30;;;;;;4971567;28;20224;-86
2023/03/25 19:03:03;;;;;;;1.48;0.85;;;8.80;65.60;;;;;;4968369;28;20212;-86
2023/03/25 19:05:30;;;;;;;2.40;1.30;;;8.80;66.40;;;;;;4970822;28;20208;-85
2023/03/25 19:07:57;;;;;;;1.23;1.00;;;8.70;67.00;;;;;;4970248;28;20197;-85
2023/03/25 19:10:26;;;;;;;0.70;0.70;;;8.70;68.00;;;;;;4952687;28;20193;-85
2023/03/25 19:12:54;;;;;;;1.30;0.85;;;8.60;69.50;;;;;;4970152;28;20228;-88
2023/03/25 19:15:23;;;;;;;2.97;1.27;;;8.60;70.80;;;;;;4963718;28;20197;-86
2023/03/25 19:17:51;;;;;;;0.82;0.82;;;8.60;70.50;;;;;;4961130;28;20201;-85
2023/03/25 19:20:19;;;;;;;2.17;1.20;;;8.60;70.20;;;;;;4967621;28;20206;-87
2023/03/25 19:22:47;;;;;;;2.88;1.30;;;8.60;69.80;;;;;;4968963;28;20225;-87
2023/03/25 19:25:15;;;;;;;0.73;0.73;;;8.60;70.00;;;;;;4965691;28;20667;-87
2023/03/25 19:27:42;;;;;;;1.15;0.85;;;8.60;70.90;;;;;;4972691;28;20236;-87